Time;durP1;ratioP1;P1;durP2;ratioP2;P2;SDS_P1;SDS_P2;PMS_P1;PMS_P2;Temp;Humidity;BMP_temperature;BMP_pressure;BME280_temperature;BME280_humidity;BME280_pressure;Samples;Min_cycle;Max_cycle;Signal;HPM_P1;HPM_P2
2020/12/24 00:00:32;;;;;;;54.20;28.52;;;;;;;4.27;85.58;99928.70;1765434;78;27551;-82
2020/12/24 00:03:01;;;;;;;52.35;28.02;;;;;;;4.29;85.63;99923.23;1779998;78;26558;-82
2020/12/24 00:05:29;;;;;;;53.80;28.62;;;;;;;4.31;85.67;99926.54;1738002;81;25839;-82
2020/12/24 00:07:56;;;;;;;58.33;29.07;;;;;;;4.32;85.77;99922.91;1743018;81;25836;-81
2020/12/24 00:10:24;;;;;;;49.25;28.12;;;;;;;4.33;85.80;99909.97;1715996;82;25856;-82
2020/12/24 00:12:51;;;;;;;54.45;28.70;;;;;;;4.37;85.89;99906.00;1747047;81;27527;-81
2020/12/24 00:15:19;;;;;;;62.60;30.55;;;;;;;4.39;85.99;99903.52;1708780;81;25830;-82
2020/12/24 00:17:46;;;;;;;54.67;27.82;;;;;;;4.40;85.95;99903.87;1741575;81;26518;-82
2020/12/24 00:20:14;;;;;;;55.45;27.80;;;;;;;4.43;86.04;99904.84;1682596;81;26132;-82
2020/12/24 00:22:41;;;;;;;54.55;28.00;;;;;;;4.44;86.04;99895.91;1726173;81;25974;-82
2020/12/24 00:25:09;;;;;;;64.60;30.15;;;;;;;4.47;86.12;99885.48;1722880;81;27155;-81
2020/12/24 00:27:36;;;;;;;62.25;31.10;;;;;;;4.50;86.11;99881.16;1738105;81;25837;-81
2020/12/24 00:30:04;;;;;;;58.42;29.30;;;;;;;4.48;86.15;99878.67;1715060;81;25901;-82
2020/12/24 00:32:32;;;;;;;56.58;28.83;;;;;;;4.48;86.21;99876.52;1715507;81;25439;-81
2020/12/24 00:34:59;;;;;;;53.15;26.02;;;;;;;4.48;86.21;99879.16;1720528;81;25412;-82
2020/12/24 00:37:27;;;;;;;56.98;28.95;;;;;;;4.47;86.34;99878.33;1750167;81;28504;-82
2020/12/24 00:39:54;;;;;;;55.63;28.40;;;;;;;4.48;86.40;99875.19;1713730;82;26158;-82
2020/12/24 00:42:21;;;;;;;55.52;28.15;;;;;;;4.48;86.43;99868.06;1738806;81;25839;-82
2020/12/24 00:44:49;;;;;;;57.62;29.48;;;;;;;4.50;86.50;99870.05;1726508;81;25845;-82
2020/12/24 00:47:16;;;;;;;53.13;29.52;;;;;;;4.53;86.53;99867.05;1733643;81;26082;-82
2020/12/24 00:49:44;;;;;;;52.55;29.30;;;;;;;4.55;86.59;99863.77;1714878;81;28519;-82
2020/12/24 00:52:13;;;;;;;59.85;30.48;;;;;;;4.58;86.65;99851.97;1693591;81;25847;-82
2020/12/24 00:54:40;;;;;;;51.68;27.35;;;;;;;4.59;86.66;99849.67;1711100;81;26478;-83
2020/12/24 00:57:08;;;;;;;54.65;27.42;;;;;;;4.59;86.70;99849.17;1734151;81;25766;-82
2020/12/24 00:59:36;;;;;;;54.30;27.82;;;;;;;4.59;86.73;99844.36;1678244;83;26127;-82
2020/12/24 01:02:03;;;;;;;51.13;28.75;;;;;;;4.60;86.81;99837.55;1735508;81;27591;-81
2020/12/24 01:04:30;;;;;;;53.30;27.98;;;;;;;4.63;86.95;99837.23;1711166;80;25820;-82
2020/12/24 01:06:58;;;;;;;54.13;27.87;;;;;;;4.63;86.99;99824.46;1755579;80;26418;-81
2020/12/24 01:09:25;;;;;;;59.20;29.85;;;;;;;4.64;87.01;99812.88;1691436;80;25847;-82
2020/12/24 01:11:53;;;;;;;55.65;27.05;;;;;;;4.65;87.16;99808.72;1682920;82;26358;-82
2020/12/24 01:14:20;;;;;;;50.43;27.73;;;;;;;4.66;87.10;99797.61;1712527;81;27102;-82
2020/12/24 01:16:47;;;;;;;57.60;28.65;;;;;;;4.66;87.17;99786.48;1731056;81;25913;-82
2020/12/24 01:19:15;;;;;;;57.27;30.08;;;;;;;4.68;87.28;99781.84;1682088;80;25848;-82
2020/12/24 01:21:47;;;;;;;52.95;27.15;;;;;;;4.68;87.34;99780.51;1721399;80;25951;-82
2020/12/24 01:24:15;;;;;;;51.65;26.97;;;;;;;4.70;87.48;99769.23;1735304;80;25408;-82
2020/12/24 01:26:48;;;;;;;55.12;28.52;;;;;;;4.70;87.63;99754.64;1748076;81;27540;-82
2020/12/24 01:29:16;;;;;;;54.23;27.22;;;;;;;4.74;87.74;99754.31;1692671;81;26072;-81
2020/12/24 01:31:47;;;;;;;49.75;25.20;;;;;;;4.77;87.74;99750.01;1733994;81;25933;-82
2020/12/24 01:34:16;;;;;;;49.38;25.97;;;;;;;4.77;87.72;99730.11;1731297;80;25791;-82
2020/12/24 01:36:43;;;;;;;48.15;26.35;;;;;;;4.79;87.81;99726.78;1765097;80;26279;-81
2020/12/24 01:39:11;;;;;;;52.48;26.50;;;;;;;4.80;87.93;99717.81;1694375;81;27714;-81
2020/12/24 01:41:39;;;;;;;45.43;24.20;;;;;;;4.81;87.93;99708.87;1715379;81;25811;-81
2020/12/24 01:44:07;;;;;;;46.20;26.10;;;;;;;4.83;88.03;99699.75;1686371;81;26385;-81
2020/12/24 01:46:35;;;;;;;48.87;26.05;;;;;;;4.86;88.05;99687.94;1739306;81;25859;-82
2020/12/24 01:49:02;;;;;;;69.58;33.23;;;;;;;4.89;88.07;99684.95;1707557;81;26168;-82
2020/12/24 01:51:31;;;;;;;68.55;37.08;;;;;;;4.87;88.23;99675.84;1724568;81;27514;-82
2020/12/24 01:54:00;;;;;;;66.45;34.85;;;;;;;4.89;88.18;99673.01;1703212;81;25934;-81
2020/12/24 01:56:27;;;;;;;64.27;33.90;;;;;;;4.89;88.35;99660.58;1738482;81;25401;-82
2020/12/24 01:58:54;;;;;;;67.45;33.33;;;;;;;4.90;88.30;99655.58;1693950;82;25884;-81
2020/12/24 02:01:22;;;;;;;78.78;34.40;;;;;;;4.93;88.42;99650.43;1706708;81;26148;-82
2020/12/24 02:03:49;;;;;;;71.60;33.75;;;;;;;4.96;88.45;99646.12;1706370;81;26643;-82
2020/12/24 02:06:17;;;;;;;79.22;35.10;;;;;;;4.98;88.50;99642.78;1735673;81;26132;-82
2020/12/24 02:08:46;;;;;;;89.15;40.38;;;;;;;5.00;88.52;99642.11;1687447;81;26383;-82
2020/12/24 02:11:14;;;;;;;100.35;42.93;;;;;;;5.03;88.54;99629.30;1725675;81;25815;-82
2020/12/24 02:13:41;;;;;;;95.03;43.75;;;;;;;5.06;88.56;99640.91;1706292;81;26154;-81
2020/12/24 02:16:09;;;;;;;83.97;39.03;;;;;;;5.09;88.58;99630.45;1737077;81;27469;-81
2020/12/24 02:18:36;;;;;;;76.45;35.15;;;;;;;5.10;88.62;99624.96;1687380;83;25965;-82
2020/12/24 02:21:04;;;;;;;71.12;32.50;;;;;;;5.12;88.68;99624.28;1719895;81;26042;-82
2020/12/24 02:23:31;;;;;;;66.33;29.87;;;;;;;5.12;88.70;99613.66;1725424;81;25417;-82
2020/12/24 02:25:58;;;;;;;60.08;29.75;;;;;;;5.14;88.76;99601.04;1691382;83;25402;-82
2020/12/24 02:28:26;;;;;;;67.35;31.70;;;;;;;5.16;89.03;99594.22;1690297;83;27539;-82
2020/12/24 02:30:53;;;;;;;59.93;29.92;;;;;;;5.19;88.87;99593.38;1699027;81;26123;-82
2020/12/24 02:33:21;;;;;;;65.42;32.30;;;;;;;5.22;88.90;99585.55;1721317;81;26216;-81
2020/12/24 02:35:48;;;;;;;56.18;30.02;;;;;;;5.23;88.91;99578.75;1701606;81;25971;-82
2020/12/24 02:38:16;;;;;;;48.20;25.65;;;;;;;5.27;88.99;99573.90;1700742;82;25884;-81
2020/12/24 02:40:44;;;;;;;36.08;19.87;;;;;;;5.28;89.03;99580.88;1723354;81;27586;-81
2020/12/24 02:43:11;;;;;;;27.93;16.23;;;;;;;5.29;89.07;99578.53;1708691;81;26202;-82
2020/12/24 02:45:38;;;;;;;29.82;17.45;;;;;;;5.30;89.08;99579.67;1714071;81;25938;-81
2020/12/24 02:48:06;;;;;;;28.80;18.15;;;;;;;5.32;89.09;99568.89;1703119;81;26425;-81
2020/12/24 02:50:33;;;;;;;28.73;16.27;;;;;;;5.34;89.13;99564.23;1741528;81;26843;-82
2020/12/24 02:53:01;;;;;;;26.23;17.90;;;;;;;5.36;89.18;99553.76;1667100;81;27555;-82
2020/12/24 02:55:28;;;;;;;25.92;15.60;;;;;;;5.38;89.31;99548.26;1725625;81;25937;-82
2020/12/24 02:57:55;;;;;;;27.05;17.10;;;;;;;5.39;89.21;99550.73;1713860;81;25910;-82
2020/12/24 03:00:23;;;;;;;27.55;15.70;;;;;;;5.41;89.35;99547.39;1714745;83;25868;-81
2020/12/24 03:02:50;;;;;;;22.87;15.43;;;;;;;5.43;89.27;99548.03;1710637;81;25842;-82
2020/12/24 03:05:17;;;;;;;24.47;14.80;;;;;;;5.45;89.30;99535.40;1687199;81;28880;-81
2020/12/24 03:07:50;;;;;;;22.93;15.05;;;;;;;5.46;89.25;99530.42;1710051;81;25982;-83
2020/12/24 03:10:18;;;;;;;24.57;14.68;;;;;;;5.48;89.34;99516.95;1742152;81;25755;-82
2020/12/24 03:12:45;;;;;;;34.23;20.15;;;;;;;5.48;89.38;99506.33;1737571;81;25688;-82
2020/12/24 03:15:14;;;;;;;33.20;18.02;;;;;;;5.49;89.38;99502.69;1714593;81;26523;-81
2020/12/24 03:17:41;;;;;;;25.27;13.98;;;;;;;5.53;89.40;99507.95;1709961;81;27391;-82
2020/12/24 03:20:08;;;;;;;23.07;13.13;;;;;;;5.56;89.42;99508.10;1750555;81;26659;-81
2020/12/24 03:22:38;;;;;;;20.65;12.03;;;;;;;5.57;89.50;99497.78;1712499;81;25375;-82
2020/12/24 03:25:05;;;;;;;22.50;13.08;;;;;;;5.58;89.48;99492.28;1716722;81;25541;-81
2020/12/24 03:27:32;;;;;;;22.98;13.72;;;;;;;5.59;89.52;99493.94;1720917;81;26359;-81
2020/12/24 03:30:00;;;;;;;20.80;12.43;;;;;;;5.60;89.75;99495.61;1729828;81;27530;-81
2020/12/24 03:32:27;;;;;;;18.25;11.05;;;;;;;5.62;89.65;99503.39;1670159;82;25391;-81
2020/12/24 03:34:55;;;;;;;17.23;11.50;;;;;;;5.62;89.55;99501.56;1693249;82;25825;-82
2020/12/24 03:37:22;;;;;;;18.73;11.68;;;;;;;5.64;89.46;99488.09;1719950;81;26236;-81
2020/12/24 03:39:49;;;;;;;19.95;12.60;;;;;;;5.64;89.55;99486.27;1751426;81;26592;-82
2020/12/24 03:42:17;;;;;;;19.77;13.20;;;;;;;5.67;89.53;99478.41;1719283;82;28487;-82
2020/12/24 03:44:44;;;;;;;17.80;11.38;;;;;;;5.69;89.54;99467.92;1715102;81;26373;-82
2020/12/24 03:47:11;;;;;;;15.13;9.85;;;;;;;5.72;89.62;99457.44;1714029;81;26086;-82
2020/12/24 03:49:39;;;;;;;14.90;9.53;;;;;;;5.75;89.99;99461.07;1756723;81;26474;-81
2020/12/24 03:52:06;;;;;;;18.25;11.50;;;;;;;5.77;90.08;99448.42;1704124;81;25833;-81
2020/12/24 03:54:33;;;;;;;15.13;10.75;;;;;;;5.84;90.23;99450.68;1713929;81;27674;-82
2020/12/24 03:57:01;;;;;;;16.23;10.65;;;;;;;5.86;90.04;99434.88;1714013;82;25914;-81
2020/12/24 03:59:28;;;;;;;18.35;11.75;;;;;;;5.90;90.01;99438.01;1744294;81;25764;-81
2020/12/24 04:01:56;;;;;;;16.15;10.50;;;;;;;5.93;89.96;99429.15;1721671;81;25804;-82
2020/12/24 04:04:23;;;;;;;15.65;10.08;;;;;;;5.96;89.97;99430.62;1708988;82;26146;-81
2020/12/24 04:06:50;;;;;;;14.35;9.45;;;;;;;6.00;90.14;99411.95;1699073;82;26522;-82
2020/12/24 04:09:18;;;;;;;14.13;10.13;;;;;;;6.01;90.28;99394.48;1719404;82;26138;-82
2020/12/24 04:11:45;;;;;;;17.65;10.98;;;;;;;6.06;90.29;99401.41;1654244;82;25851;-82
2020/12/24 04:14:13;;;;;;;15.78;10.65;;;;;;;6.10;90.27;99400.52;1689915;82;26441;-82
2020/12/24 04:16:43;;;;;;;17.57;10.88;;;;;;;6.15;90.33;99406.10;1689503;82;25932;-82
2020/12/24 04:19:09;;;;;;;16.82;10.28;;;;;;;6.17;90.30;99405.41;1721334;82;29407;-81
2020/12/24 04:21:37;;;;;;;15.30;9.83;;;;;;;6.20;90.28;99407.70;1664343;82;26763;-82
2020/12/24 04:24:04;;;;;;;15.83;10.00;;;;;;;6.22;90.21;99396.38;1698270;82;25821;-82
2020/12/24 04:26:32;;;;;;;14.15;9.20;;;;;;;6.23;90.27;99394.02;1685477;82;26023;-82
2020/12/24 04:28:59;;;;;;;17.23;10.50;;;;;;;6.24;90.27;99391.69;1708171;82;25802;-82
2020/12/24 04:31:27;;;;;;;18.10;10.82;;;;;;;6.25;90.27;99390.66;1688009;84;27543;-80
2020/12/24 04:33:55;;;;;;;19.20;10.90;;;;;;;6.28;90.37;99388.14;1712537;82;25830;-82
2020/12/24 04:36:22;;;;;;;16.17;10.75;;;;;;;6.31;90.36;99388.58;1669292;84;25508;-82
2020/12/24 04:38:50;;;;;;;18.87;11.18;;;;;;;6.34;90.44;99376.73;1699257;82;26367;-81
2020/12/24 04:41:17;;;;;;;18.95;11.60;;;;;;;6.37;90.43;99378.53;1652754;84;26024;-82
2020/12/24 04:43:46;;;;;;;17.77;12.40;;;;;;;6.41;90.52;99380.30;1669631;83;28497;-82
2020/12/24 04:46:15;;;;;;;19.00;12.07;;;;;;;6.44;90.64;99377.23;1675207;84;26475;-82
2020/12/24 04:48:44;;;;;;;17.42;12.20;;;;;;;6.47;90.66;99369.73;1720528;82;25753;-82
2020/12/24 04:51:15;;;;;;;19.52;13.05;;;;;;;6.52;90.76;99361.98;1716121;82;25857;-81
2020/12/24 04:53:45;;;;;;;25.70;14.90;;;;;;;6.57;90.96;99358.75;1703905;82;25873;-81
2020/12/24 04:56:12;;;;;;;23.40;14.78;;;;;;;6.61;91.18;99355.52;1712393;82;27690;-81
2020/12/24 04:58:43;;;;;;;20.77;14.00;;;;;;;6.65;91.26;99350.12;1712116;82;25812;-81
2020/12/24 05:01:19;;;;;;;22.15;17.05;;;;;;;6.70;91.30;99344.23;1651110;84;25827;-82
2020/12/24 05:03:47;;;;;;;22.25;14.43;;;;;;;6.75;91.50;99345.31;1667095;83;26043;-81
2020/12/24 05:06:17;;;;;;;22.07;14.65;;;;;;;6.80;91.60;99341.55;1698912;81;25928;-82
2020/12/24 05:08:53;;;;;;;24.80;15.13;;;;;;;6.85;91.67;99337.81;1742775;81;28393;-82
2020/12/24 05:11:27;;;;;;;23.92;15.70;;;;;;;6.90;91.78;99342.56;1715208;82;25756;-82
2020/12/24 05:13:57;;;;;;;21.70;15.70;;;;;;;6.95;91.99;99340.12;1718162;81;25803;-81
2020/12/24 05:16:24;;;;;;;23.55;15.63;;;;;;;7.03;92.26;99345.31;1684907;81;26187;-81
2020/12/24 05:18:51;;;;;;;30.57;18.70;;;;;;;7.10;92.92;99347.50;1741971;81;25800;-82
2020/12/24 05:21:33;;;;;;;30.45;19.98;;;;;;;7.23;94.35;99346.25;1672674;81;27538;-82
2020/12/24 05:24:00;;;;;;;30.08;19.17;;;;;;;7.38;94.01;99357.61;1739318;81;26007;-82
2020/12/24 05:26:30;;;;;;;24.80;16.20;;;;;;;7.46;93.61;99345.45;1714748;81;26473;-82
2020/12/24 05:29:11;;;;;;;27.50;18.00;;;;;;;7.53;93.64;99342.83;1739578;81;25884;-81
2020/12/24 05:31:38;;;;;;;24.77;16.82;;;;;;;7.59;93.55;99350.05;1724343;81;27209;-82
2020/12/24 05:34:06;;;;;;;24.02;15.72;;;;;;;7.66;93.61;99349.05;1714568;81;27696;-82
2020/12/24 05:36:33;;;;;;;28.65;18.87;;;;;;;7.71;93.47;99348.45;1724461;81;25872;-82
2020/12/24 05:39:00;;;;;;;29.20;18.75;;;;;;;7.78;94.20;99348.78;1741811;81;25897;-82
2020/12/24 05:41:36;;;;;;;24.63;18.12;;;;;;;7.84;93.97;99352.52;1699658;81;26743;-82
2020/12/24 05:44:10;;;;;;;26.17;18.07;;;;;;;7.88;94.01;99353.75;1713579;81;26159;-81
2020/12/24 05:46:49;;;;;;;25.50;17.45;;;;;;;7.93;93.89;99346.50;1708592;81;27247;-82
2020/12/24 05:49:19;;;;;;;26.68;17.87;;;;;;;7.99;93.80;99345.69;1738330;80;26147;-82
2020/12/24 05:51:59;;;;;;;24.55;17.50;;;;;;;8.03;93.81;99345.09;1718808;81;32598;-82
2020/12/24 05:54:29;;;;;;;27.87;16.95;;;;;;;8.09;94.19;99344.78;1715349;81;26362;-82
2020/12/24 05:56:58;;;;;;;24.57;16.97;;;;;;;8.16;94.37;99338.97;1719291;82;25798;-82
2020/12/24 05:59:27;;;;;;;26.97;17.57;;;;;;;8.23;94.51;99338.48;1745386;81;28495;-82
2020/12/24 06:02:17;;;;;;;22.45;15.72;;;;;;;8.33;95.10;99342.42;1742805;81;25800;-81
2020/12/24 06:04:48;;;;;;;26.35;16.55;;;;;;;8.43;95.24;99330.84;1691569;82;26595;-81
2020/12/24 06:07:29;;;;;;;24.25;16.85;;;;;;;8.55;95.11;99327.06;1720774;81;26016;-82
2020/12/24 06:10:04;;;;;;;23.27;16.85;;;;;;;8.66;94.97;99330.43;1740924;81;25983;-82
2020/12/24 06:12:31;;;;;;;23.38;16.00;;;;;;;8.73;95.02;99327.77;1744794;81;27583;-82
2020/12/24 06:15:01;;;;;;;23.40;17.07;;;;;;;8.80;94.76;99328.08;1710065;81;25808;-82
2020/12/24 06:17:30;;;;;;;25.45;16.42;;;;;;;8.85;94.51;99326.96;1703446;81;35049;-82
2020/12/24 06:19:58;;;;;;;21.73;15.08;;;;;;;8.90;94.40;99319.64;1715120;80;25829;-81
2020/12/24 06:22:27;;;;;;;24.95;15.23;;;;;;;8.96;94.66;99326.84;1720738;81;26237;-82
2020/12/24 06:25:01;;;;;;;20.37;14.73;;;;;;;9.00;94.41;99325.41;1671596;83;27563;-83
2020/12/24 06:27:35;;;;;;;20.48;13.65;;;;;;;9.05;94.43;99331.75;1646653;84;26060;-82
2020/12/24 06:30:21;;;;;;;16.07;10.23;;;;;;;9.10;94.65;99327.12;1662521;84;26537;-82
2020/12/24 06:32:51;;;;;;;21.05;12.98;;;;;;;9.16;94.73;99327.63;1697275;84;25555;-83
2020/12/24 06:35:39;;;;;;;18.52;12.75;;;;;;;9.20;94.21;99332.85;1673934;81;26036;-82
2020/12/24 06:38:11;;;;;;;17.73;12.95;;;;;;;9.24;94.14;99335.41;1742353;81;27539;-83
2020/12/24 06:40:42;;;;;;;15.05;11.15;;;;;;;9.28;94.12;99322.77;1714467;81;25969;-82
2020/12/24 06:43:11;;;;;;;14.68;11.50;;;;;;;9.32;94.11;99317.30;1736178;81;25713;-82
2020/12/24 06:45:41;;;;;;;12.63;9.68;;;;;;;9.36;94.04;99326.25;1713717;81;25755;-82
2020/12/24 06:48:26;;;;;;;15.03;11.50;;;;;;;9.36;94.00;99327.08;1705710;81;25885;-82
2020/12/24 06:51:02;;;;;;;15.13;12.03;;;;;;;9.40;94.09;99334.15;1742997;81;26360;-82
2020/12/24 06:53:36;;;;;;;20.88;12.73;;;;;;;9.43;93.86;99343.89;1741576;81;25724;-82
2020/12/24 06:56:27;;;;;;;17.60;11.97;;;;;;;9.46;93.81;99342.66;1667366;81;26037;-82
2020/12/24 06:59:03;;;;;;;17.35;12.20;;;;;;;9.44;93.91;99340.72;1728719;81;26453;-82
2020/12/24 07:01:35;;;;;;;18.10;11.95;;;;;;;9.44;93.91;99340.72;1721592;81;25734;-82
2020/12/24 07:04:05;;;;;;;18.40;13.00;;;;;;;9.54;93.84;99346.47;1726024;81;27525;-82
2020/12/24 07:06:49;;;;;;;17.87;12.33;;;;;;;9.56;93.63;99335.05;1723684;80;26162;-81
2020/12/24 07:09:28;;;;;;;16.62;11.80;;;;;;;9.60;93.75;99329.58;1756247;80;25586;-82
2020/12/24 07:11:56;;;;;;;17.82;11.08;;;;;;;9.63;93.51;99324.62;1744012;80;26427;-82
2020/12/24 07:14:39;;;;;;;16.05;12.28;;;;;;;9.66;93.36;99328.22;1736190;80;25769;-82
2020/12/24 07:17:16;;;;;;;16.65;12.40;;;;;;;9.66;93.16;99325.55;1708255;80;27544;-82
2020/12/24 07:19:48;;;;;;;16.20;11.85;;;;;;;9.68;93.10;99334.69;1755985;80;25687;-82
2020/12/24 07:22:18;;;;;;;16.42;10.88;;;;;;;9.70;93.29;99333.45;1754155;81;25932;-83
2020/12/24 07:25:00;;;;;;;18.98;12.13;;;;;;;9.72;93.11;99335.89;1768394;80;25808;-82
2020/12/24 07:27:28;;;;;;;14.80;9.80;;;;;;;9.73;92.99;99338.35;1704885;80;25871;-82
2020/12/24 07:29:58;;;;;;;14.78;10.58;;;;;;;9.76;93.27;99338.45;1734300;80;28508;-83
2020/12/24 07:32:26;;;;;;;15.80;10.88;;;;;;;9.81;93.18;99343.99;1740583;80;25651;-83
2020/12/24 07:34:53;;;;;;;15.35;10.03;;;;;;;9.82;92.96;99347.78;1770590;80;25992;-82
2020/12/24 07:37:23;;;;;;;14.78;10.30;;;;;;;9.84;92.81;99341.70;1728875;80;25936;-83
2020/12/24 07:39:55;;;;;;;11.05;8.20;;;;;;;9.85;92.65;99338.02;1753216;80;25905;-82
2020/12/24 07:42:26;;;;;;;12.45;9.28;;;;;;;9.88;92.65;99345.59;1744274;80;27922;-82
2020/12/24 07:44:55;;;;;;;;;;;;;;;9.90;92.46;99350.20;1786391;80;25739;-82
2020/12/24 07:47:24;;;;;;;15.48;10.30;;;;;;;9.90;92.50;99348.88;1729707;80;25791;-82
2020/12/24 07:49:52;;;;;;;15.35;8.95;;;;;;;9.90;92.47;99352.89;1727217;80;26581;-82
2020/12/24 07:52:22;;;;;;;12.82;9.13;;;;;;;9.92;92.27;99352.16;1742089;80;25924;-82
2020/12/24 07:54:50;;;;;;;12.83;9.00;;;;;;;9.90;92.17;99348.08;1748195;80;28678;-82
2020/12/24 07:57:22;;;;;;;11.83;8.23;;;;;;;9.90;92.17;99348.08;1747850;80;26554;-82
2020/12/24 08:00:00;;;;;;;9.85;7.47;;;;;;;9.96;92.05;99346.71;1745321;80;25806;-83
2020/12/24 08:02:30;;;;;;;12.07;7.95;;;;;;;9.98;92.02;99355.85;1732207;80;25845;-83
2020/12/24 08:04:57;;;;;;;11.10;7.30;;;;;;;9.99;91.87;99352.95;1773681;80;26142;-81
2020/12/24 08:07:26;;;;;;;12.78;7.78;;;;;;;9.99;91.85;99344.10;1758588;80;28519;-82
2020/12/24 08:09:54;;;;;;;15.40;9.48;;;;;;;10.00;91.71;99355.95;1721608;81;25861;-82
2020/12/24 08:12:23;;;;;;;17.73;10.90;;;;;;;10.01;91.71;99352.22;1719786;81;26030;-83
2020/12/24 08:14:51;;;;;;;12.60;7.95;;;;;;;10.04;91.66;99360.34;1709341;81;25778;-82
2020/12/24 08:17:31;;;;;;;12.55;8.20;;;;;;;10.05;91.60;99368.69;1748044;81;26948;-82
2020/12/24 08:20:08;;;;;;;11.00;7.08;;;;;;;10.07;91.55;99369.30;1716982;81;28408;-82
2020/12/24 08:22:56;;;;;;;11.53;7.87;;;;;;;10.06;91.41;99369.80;1748441;81;26163;-83
2020/12/24 08:25:22;;;;;;;10.72;7.10;;;;;;;10.08;91.35;99373.59;1728186;81;25878;-82
2020/12/24 08:27:51;;;;;;;9.50;7.55;;;;;;;10.09;91.32;99372.03;1736582;81;26520;-82
2020/12/24 08:30:19;;;;;;;8.58;6.37;;;;;;;10.11;91.27;99375.89;1719738;81;25821;-82
2020/12/24 08:32:47;;;;;;;9.30;6.60;;;;;;;10.13;91.13;99371.66;1732679;81;27101;-82
2020/12/24 08:35:16;;;;;;;11.85;6.87;;;;;;;10.13;91.03;99373.82;1729060;81;26153;-83
2020/12/24 08:37:43;;;;;;;8.10;6.37;;;;;;;10.14;90.97;99381.34;1749159;81;26388;-81
2020/12/24 08:40:24;;;;;;;10.93;7.65;;;;;;;10.14;90.94;99382.13;1727699;81;26450;-81
2020/12/24 08:43:05;;;;;;;10.85;7.65;;;;;;;10.15;90.90;99378.44;1733637;81;25894;-82
2020/12/24 08:45:32;;;;;;;8.83;6.72;;;;;;;10.17;90.84;99383.06;1678563;82;27530;-81
2020/12/24 08:48:02;;;;;;;8.85;6.15;;;;;;;10.17;90.74;99368.85;1641828;84;25920;-81
2020/12/24 08:50:36;;;;;;;12.73;6.47;;;;;;;10.19;90.64;99374.30;1710702;81;25868;-81
2020/12/24 08:53:06;;;;;;;12.20;8.43;;;;;;;10.20;90.50;99380.48;1667846;84;26339;-81
2020/12/24 08:55:34;;;;;;;11.15;6.83;;;;;;;10.22;90.51;99375.73;1675932;82;26052;-82
2020/12/24 08:58:02;;;;;;;8.95;6.70;;;;;;;10.24;90.39;99370.47;1718973;82;27531;-83
2020/12/24 09:00:29;;;;;;;10.13;6.55;;;;;;;10.25;90.22;99379.30;1680938;81;25891;-82
2020/12/24 09:02:57;;;;;;;13.35;7.65;;;;;;;10.25;90.21;99373.44;1704162;82;25925;-81
2020/12/24 09:05:25;;;;;;;9.43;6.80;;;;;;;10.25;90.13;99374.77;1681101;82;26053;-81
2020/12/24 09:07:54;;;;;;;9.13;5.78;;;;;;;10.26;90.06;99371.08;1725200;80;26361;-81
2020/12/24 09:10:27;;;;;;;7.08;5.12;;;;;;;10.27;89.89;99361.17;1703868;82;27433;-81
2020/12/24 09:12:58;;;;;;;9.63;6.50;;;;;;;10.28;89.88;99355.63;1665218;82;25539;-82
2020/12/24 09:15:28;;;;;;;8.65;5.05;;;;;;;10.28;89.72;99351.61;1681389;82;25535;-81
2020/12/24 09:17:59;;;;;;;10.78;5.65;;;;;;;10.28;89.60;99344.09;1704710;82;25761;-83
2020/12/24 09:20:31;;;;;;;6.60;5.33;;;;;;;10.28;89.65;99346.77;1704444;82;32936;-82
2020/12/24 09:23:01;;;;;;;9.73;6.05;;;;;;;10.28;89.49;99339.56;1728932;82;27349;-82
2020/12/24 09:25:32;;;;;;;10.50;5.67;;;;;;;10.27;89.41;99335.74;1681308;82;26485;-82
2020/12/24 09:28:01;;;;;;;11.03;6.03;;;;;;;10.27;89.37;99343.27;1708164;81;25974;-81
2020/12/24 09:30:32;;;;;;;10.85;6.00;;;;;;;10.29;89.42;99345.72;1700057;82;25832;-82
2020/12/24 09:33:03;;;;;;;7.75;5.33;;;;;;;10.30;89.33;99348.20;1686306;82;25765;-82
2020/12/24 09:35:34;;;;;;;8.23;4.97;;;;;;;10.32;89.24;99346.13;1645854;84;28228;-82
2020/12/24 09:38:02;;;;;;;7.25;4.95;;;;;;;10.34;89.19;99353.93;1684531;82;26180;-79
2020/12/24 09:40:31;;;;;;;9.08;4.97;;;;;;;10.35;89.09;99348.89;1696138;83;25796;-82
2020/12/24 09:42:59;;;;;;;6.92;5.03;;;;;;;10.36;89.00;99343.31;1699339;83;25865;-81
2020/12/24 09:45:28;;;;;;;8.78;5.25;;;;;;;10.38;88.82;99353.29;1675719;82;26549;-82
2020/12/24 09:47:57;;;;;;;10.30;5.37;;;;;;;10.38;88.76;99369.35;1674008;82;27535;-82
2020/12/24 09:50:26;;;;;;;9.18;4.67;;;;;;;10.41;88.82;99351.53;1698850;83;25428;-81
2020/12/24 09:52:55;;;;;;;7.45;4.30;;;;;;;10.43;88.68;99328.55;1714807;82;25886;-82
2020/12/24 09:55:22;;;;;;;6.37;4.58;;;;;;;10.43;88.63;99318.67;1647970;84;25847;-81
2020/12/24 09:57:50;;;;;;;8.80;4.85;;;;;;;10.45;88.48;99323.29;1676355;83;25788;-81
2020/12/24 10:00:17;;;;;;;10.45;4.05;;;;;;;10.45;88.46;99326.48;1671456;84;28437;-81
2020/12/24 10:02:45;;;;;;;7.58;4.58;;;;;;;10.47;88.23;99318.53;1695206;83;25774;-82
2020/12/24 10:05:12;;;;;;;13.60;5.28;;;;;;;10.49;88.09;99327.68;1724267;82;25924;-81
2020/12/24 10:07:44;;;;;;;10.25;5.20;;;;;;;10.49;88.22;99326.34;1678053;82;26645;-81
2020/12/24 10:10:11;;;;;;;7.60;4.60;;;;;;;10.52;88.10;99329.94;1730856;82;25912;-81
2020/12/24 10:12:38;;;;;;;11.18;5.08;;;;;;;10.53;88.04;99332.39;1722313;82;27608;-81
2020/12/24 10:15:07;;;;;;;10.10;4.95;;;;;;;10.53;87.90;99325.70;1698539;82;25429;-81
2020/12/24 10:17:35;;;;;;;9.90;5.05;;;;;;;10.55;88.04;99320.94;1698660;82;25860;-81
2020/12/24 10:20:03;;;;;;;11.63;5.25;;;;;;;10.56;87.93;99332.48;1707198;81;25776;-80
2020/12/24 10:22:30;;;;;;;10.05;4.80;;;;;;;10.56;87.83;99325.78;1721079;82;25531;-83
2020/12/24 10:24:57;;;;;;;7.05;4.67;;;;;;;10.56;87.62;99325.24;1697383;82;28278;-83
2020/12/24 10:27:25;;;;;;;11.43;5.15;;;;;;;10.57;87.77;99330.91;1681137;84;25797;-81
2020/12/24 10:29:52;;;;;;;11.57;5.25;;;;;;;10.58;87.61;99329.89;1720755;82;25816;-81
2020/12/24 10:32:20;;;;;;;28.40;9.00;;;;;;;10.59;87.56;99332.03;1719247;81;26605;-81
2020/12/24 10:34:48;;;;;;;17.67;7.87;;;;;;;10.60;87.50;99335.02;1658385;84;25944;-82
2020/12/24 10:37:16;;;;;;;9.05;5.92;;;;;;;10.60;87.38;99337.70;1690951;82;27538;-78
2020/12/24 10:39:43;;;;;;;9.00;5.05;;;;;;;10.60;87.31;99323.80;1746471;81;25844;-79
2020/12/24 10:42:11;;;;;;;8.85;5.53;;;;;;;10.60;87.00;99308.24;1664358;82;25896;-79
2020/12/24 10:44:39;;;;;;;16.60;9.55;;;;;;;10.61;86.78;99317.39;1716082;82;25894;-78
2020/12/24 10:47:06;;;;;;;18.77;11.43;;;;;;;10.62;86.73;99312.86;1669044;84;26085;-78
2020/12/24 10:49:34;;;;;;;28.38;17.40;;;;;;;10.63;86.69;99311.80;1723092;82;27518;-79
2020/12/24 10:52:01;;;;;;;28.80;17.55;;;;;;;10.64;86.41;99311.61;1721042;82;25730;-79
2020/12/24 10:54:28;;;;;;;22.32;14.35;;;;;;;10.65;86.16;99311.89;1719784;82;25972;-79
2020/12/24 10:56:56;;;;;;;26.50;15.35;;;;;;;10.66;85.90;99309.53;1666073;84;25933;-79
2020/12/24 10:59:23;;;;;;;15.53;11.18;;;;;;;10.68;85.95;99315.48;1743469;81;25935;-79
2020/12/24 11:01:51;;;;;;;11.60;6.03;;;;;;;10.68;85.40;99311.47;1721369;82;28532;-79
2020/12/24 11:04:20;;;;;;;10.72;5.53;;;;;;;10.69;85.17;99312.30;1704160;82;25943;-79
2020/12/24 11:06:47;;;;;;;11.95;6.22;;;;;;;10.69;85.59;99305.60;1718249;82;25916;-79
2020/12/24 11:09:14;;;;;;;12.25;7.75;;;;;;;10.68;85.44;99295.91;1706381;81;26429;-79
2020/12/24 11:11:42;;;;;;;8.63;6.65;;;;;;;10.69;85.74;99290.33;1724113;81;26256;-79
2020/12/24 11:14:10;;;;;;;10.08;5.92;;;;;;;10.69;85.49;99278.82;1738894;81;28112;-79
2020/12/24 11:16:38;;;;;;;10.85;6.65;;;;;;;10.69;85.13;99276.14;1700441;81;25883;-79
2020/12/24 11:19:05;;;;;;;9.03;6.92;;;;;;;10.69;84.99;99267.56;1748401;81;25949;-79
2020/12/24 11:21:34;;;;;;;10.58;5.78;;;;;;;10.70;84.81;99277.77;1690309;81;25456;-79
2020/12/24 11:24:06;;;;;;;11.90;7.60;;;;;;;10.71;84.56;99275.41;1739093;81;25836;-78
2020/12/24 11:26:37;;;;;;;11.73;6.17;;;;;;;10.70;84.55;99259.84;1701294;82;27542;-79
2020/12/24 11:29:07;;;;;;;7.80;4.05;;;;;;;10.72;84.74;99250.25;1688591;82;25879;-80
2020/12/24 11:31:37;;;;;;;8.15;4.42;;;;;;;10.73;84.46;99250.02;1684451;83;26377;-79
2020/12/24 11:34:06;;;;;;;8.50;4.53;;;;;;;10.74;84.29;99246.31;1724126;81;26311;-79
2020/12/24 11:36:34;;;;;;;9.08;5.08;;;;;;;10.75;84.33;99232.41;1698280;82;25963;-78